Time;durP1;ratioP1;P1;durP2;ratioP2;P2;SDS_P1;SDS_P2;PMS_P1;PMS_P2;Temp;Humidity;BMP_temperature;BMP_pressure;BME280_temperature;BME280_humidity;BME280_pressure;Samples;Min_cycle;Max_cycle;Signal;HPM_P1;HPM_P2
2022/04/30 00:02:07;;;;;;;5.47;4.00;;;20.30;46.70;;;;;;1769999;81;21145;-71
2022/04/30 00:04:36;;;;;;;6.90;3.80;;;20.30;46.70;;;;;;1770113;80;21154;-72
2022/04/30 00:07:03;;;;;;;5.67;4.47;;;20.30;46.80;;;;;;1769433;81;21145;-71
2022/04/30 00:09:31;;;;;;;5.17;4.40;;;20.30;46.70;;;;;;1769920;81;21157;-72
2022/04/30 00:11:58;;;;;;;4.92;4.40;;;20.30;46.80;;;;;;1769829;81;21488;-72
2022/04/30 00:14:26;;;;;;;5.22;4.10;;;20.30;46.80;;;;;;1769417;80;21157;-72
2022/04/30 00:16:53;;;;;;;5.20;4.37;;;20.30;46.70;;;;;;1745617;81;21172;-72
2022/04/30 00:19:21;;;;;;;5.83;4.15;;;20.30;46.80;;;;;;1743005;81;21223;-72
2022/04/30 00:21:49;;;;;;;4.35;3.75;;;20.30;46.70;;;;;;1743466;81;21122;-72
2022/04/30 00:24:17;;;;;;;5.87;4.45;;;20.30;46.70;;;;;;1743566;81;21181;-72
2022/04/30 00:26:44;;;;;;;7.28;4.22;;;20.30;46.60;;;;;;1743661;81;21607;-71
2022/04/30 00:29:11;;;;;;;6.97;4.12;;;20.30;46.60;;;;;;1748536;81;21114;-72
2022/04/30 00:31:39;;;;;;;6.92;4.67;;;20.30;46.70;;;;;;1770328;81;21165;-72
2022/04/30 00:34:07;;;;;;;5.50;4.70;;;20.30;46.60;;;;;;1770277;81;21177;-72
2022/04/30 00:36:34;;;;;;;6.20;4.78;;;20.30;46.70;;;;;;1770187;81;21138;-72
2022/04/30 00:39:01;;;;;;;6.45;4.40;;;20.30;46.70;;;;;;1770300;81;22435;-72
2022/04/30 00:41:32;;;;;;;5.47;4.87;;;20.30;46.70;;;;;;1770480;81;21237;-71
2022/04/30 00:43:58;;;;;;;4.85;4.30;;;20.30;46.70;;;;;;1770552;80;21142;-71
2022/04/30 00:46:25;;;;;;;6.92;5.08;;;20.20;46.60;;;;;;1771252;81;21130;-71
2022/04/30 00:48:53;;;;;;;7.03;4.42;;;20.20;46.60;;;;;;1771246;81;21051;-72
2022/04/30 00:51:21;;;;;;;6.10;4.95;;;20.30;46.70;;;;;;1771072;80;21194;-71
2022/04/30 00:53:51;;;;;;;7.12;4.50;;;20.30;46.70;;;;;;1770759;81;21166;-72
2022/04/30 00:56:44;;;;;;;7.05;4.78;;;20.30;47.00;;;;;;1771021;81;21083;-72
2022/04/30 00:59:17;;;;;;;5.00;4.47;;;20.20;46.60;;;;;;1763316;81;21176;-70
2022/04/30 01:01:43;;;;;;;5.15;4.30;;;20.20;46.70;;;;;;1743986;80;21149;-70
2022/04/30 01:04:10;;;;;;;6.05;4.78;;;20.20;46.60;;;;;;1743700;81;21177;-70
2022/04/30 01:06:55;;;;;;;5.30;4.30;;;20.20;46.60;;;;;;1749937;81;21094;-71
2022/04/30 01:09:28;;;;;;;6.08;5.12;;;20.20;46.60;;;;;;1771000;81;21181;-71
2022/04/30 01:12:19;;;;;;;6.37;4.60;;;20.20;46.50;;;;;;1770883;80;21239;-71
2022/04/30 01:14:46;;;;;;;6.33;4.97;;;20.20;46.70;;;;;;1770075;79;21270;-71
2022/04/30 01:17:14;;;;;;;6.80;5.50;;;20.20;46.60;;;;;;1786966;80;21129;-71
2022/04/30 01:19:43;;;;;;;5.30;4.28;;;20.20;46.60;;;;;;1786847;80;21187;-72
2022/04/30 01:22:27;;;;;;;5.15;4.53;;;20.20;46.60;;;;;;1786902;80;21100;-71
2022/04/30 01:24:56;;;;;;;6.67;5.08;;;20.20;46.60;;;;;;1786866;80;21094;-72
2022/04/30 01:27:25;;;;;;;5.62;4.75;;;20.20;46.60;;;;;;1787551;80;21140;-72
2022/04/30 01:29:57;;;;;;;6.00;4.70;;;20.20;46.70;;;;;;1774195;80;21149;-72
2022/04/30 01:38:05;;;;;;;6.03;4.33;;;20.20;47.30;;;;;;1787088;80;21602;-71
2022/04/30 01:40:33;;;;;;;5.92;4.28;;;20.20;46.60;;;;;;1787056;80;21243;-71
2022/04/30 01:43:01;;;;;;;4.87;4.42;;;20.20;46.70;;;;;;1786893;80;21171;-70
2022/04/30 01:45:30;;;;;;;6.95;4.42;;;20.20;46.70;;;;;;1777788;80;21138;-71
2022/04/30 01:47:59;;;;;;;5.22;4.35;;;20.20;46.70;;;;;;1770760;80;21126;-71
2022/04/30 01:50:26;;;;;;;5.92;4.60;;;20.20;46.70;;;;;;1771143;80;21115;-71
2022/04/30 01:52:54;;;;;;;8.43;5.15;;;20.20;46.60;;;;;;1771313;80;21134;-71
2022/04/30 01:55:21;;;;;;;5.17;4.12;;;20.20;46.60;;;;;;1771420;80;21169;-71
2022/04/30 01:57:48;;;;;;;5.40;4.45;;;20.20;46.60;;;;;;1771694;80;21184;-71
2022/04/30 02:00:20;;;;;;;4.80;4.40;;;20.20;46.60;;;;;;1771063;80;21568;-70
2022/04/30 02:02:46;;;;;;;7.47;5.20;;;20.20;46.60;;;;;;1771138;80;21158;-70
2022/04/30 02:05:16;;;;;;;4.72;4.22;;;20.20;46.60;;;;;;1775187;80;21078;-71
2022/04/30 02:08:00;;;;;;;5.00;4.22;;;20.20;46.50;;;;;;1786876;80;21152;-72
2022/04/30 02:10:28;;;;;;;5.78;4.33;;;20.20;46.60;;;;;;1787084;80;21165;-70
2022/04/30 02:12:55;;;;;;;6.05;4.62;;;20.20;46.50;;;;;;1786876;79;21121;-70
2022/04/30 02:15:23;;;;;;;5.35;4.55;;;20.20;46.50;;;;;;1778123;80;21114;-71
2022/04/30 02:17:51;;;;;;;4.58;4.08;;;20.20;46.50;;;;;;1771352;80;21157;-70
2022/04/30 02:20:34;;;;;;;6.22;4.80;;;20.20;46.60;;;;;;1771540;80;21080;-71
2022/04/30 02:23:01;;;;;;;5.55;4.62;;;20.20;46.50;;;;;;1771133;80;21134;-72
2022/04/30 02:25:29;;;;;;;5.85;4.40;;;20.20;46.50;;;;;;1771734;80;21594;-72
2022/04/30 02:27:58;;;;;;;5.28;4.42;;;20.20;46.50;;;;;;1771625;80;21223;-71
2022/04/30 02:30:30;;;;;;;5.85;4.50;;;20.20;46.50;;;;;;1768342;80;21530;-72
2022/04/30 02:32:56;;;;;;;4.28;3.65;;;20.10;46.40;;;;;;1770029;80;21766;-72
2022/04/30 02:35:28;;;;;;;5.35;4.30;;;20.10;46.40;;;;;;1771850;80;21129;-72
2022/04/30 02:37:58;;;;;;;4.60;4.03;;;20.10;46.50;;;;;;1772041;80;22316;-72
2022/04/30 02:40:27;;;;;;;5.97;4.97;;;20.10;46.40;;;;;;1771714;80;21597;-72
2022/04/30 02:42:54;;;;;;;4.83;4.33;;;20.10;46.40;;;;;;1771655;80;21086;-72
2022/04/30 02:45:26;;;;;;;4.87;4.37;;;20.20;46.50;;;;;;1766918;80;21725;-71
2022/04/30 02:47:56;;;;;;;4.60;3.87;;;20.10;46.50;;;;;;1785737;79;21222;-72
2022/04/30 02:50:24;;;;;;;5.92;5.12;;;20.10;46.50;;;;;;1786872;80;21400;-72
2022/04/30 02:52:56;;;;;;;5.70;4.30;;;20.10;46.40;;;;;;1786902;80;21524;-71
2022/04/30 02:55:23;;;;;;;5.37;4.42;;;20.20;46.50;;;;;;1786994;80;21222;-72
2022/04/30 03:00:42;;;;;;;6.45;4.75;;;20.10;46.50;;;;;;1770642;80;21652;-72
2022/04/30 03:03:14;;;;;;;5.62;4.55;;;20.20;46.50;;;;;;1771735;80;21162;-72
2022/04/30 03:05:43;;;;;;;5.80;4.92;;;20.10;46.50;;;;;;1771752;80;21154;-72
2022/04/30 03:08:12;;;;;;;5.22;4.70;;;20.10;46.40;;;;;;1771723;80;22253;-72
2022/04/30 03:10:49;;;;;;;4.60;4.20;;;20.10;46.40;;;;;;1771982;80;21138;-73
2022/04/30 03:13:18;;;;;;;5.45;4.20;;;20.10;46.50;;;;;;1769769;80;21181;-72
2022/04/30 03:15:47;;;;;;;4.50;4.08;;;20.10;46.40;;;;;;1776658;80;21133;-71
2022/04/30 03:21:42;;;;;;;7.03;5.22;;;20.10;46.40;;;;;;1787259;80;21137;-72
2022/04/30 03:23:28;;;;;;;6.58;5.15;;;20.10;46.40;;;;;;1784923;80;21160;-72
2022/04/30 03:25:55;;;;;;;5.45;4.33;;;20.10;46.40;;;;;;1787249;80;21146;-72
2022/04/30 03:28:23;;;;;;;6.92;5.03;;;20.10;46.40;;;;;;1787252;80;21128;-72
2022/04/30 03:30:50;;;;;;;4.83;4.33;;;20.10;46.50;;;;;;1769979;80;21181;-71
2022/04/30 03:33:18;;;;;;;4.67;4.22;;;20.10;46.30;;;;;;1771649;80;21126;-71
2022/04/30 03:35:45;;;;;;;5.97;5.37;;;20.10;46.40;;;;;;1771483;80;21174;-72
2022/04/30 03:38:13;;;;;;;5.17;4.65;;;20.10;46.40;;;;;;1771459;80;21790;-72
2022/04/30 03:40:40;;;;;;;5.90;4.55;;;20.10;46.40;;;;;;1771613;80;21196;-72
2022/04/30 03:43:07;;;;;;;6.35;4.28;;;20.10;46.40;;;;;;1771786;80;21759;-71
2022/04/30 03:45:35;;;;;;;6.03;4.70;;;20.10;46.40;;;;;;1771645;80;21199;-72
2022/04/30 03:48:02;;;;;;;6.53;4.65;;;20.10;46.40;;;;;;1787097;80;21196;-72
2022/04/30 03:50:29;;;;;;;6.67;5.08;;;20.10;46.40;;;;;;1787003;80;21179;-72
2022/04/30 03:52:57;;;;;;;5.50;4.75;;;20.10;46.40;;;;;;1772917;80;21129;-72
2022/04/30 03:55:25;;;;;;;5.60;4.70;;;20.10;46.40;;;;;;1787180;80;21116;-72
2022/04/30 03:57:53;;;;;;;5.58;5.03;;;20.10;46.40;;;;;;1787315;80;21168;-72
2022/04/30 04:00:21;;;;;;;5.60;4.20;;;20.10;46.40;;;;;;1771269;80;21158;-72
2022/04/30 04:02:48;;;;;;;5.28;4.45;;;20.10;46.40;;;;;;1771591;80;21086;-72
2022/04/30 04:05:17;;;;;;;6.45;5.42;;;20.10;46.40;;;;;;1771479;80;21173;-72
2022/04/30 04:07:44;;;;;;;5.92;5.05;;;20.10;46.40;;;;;;1771613;80;21126;-71
2022/04/30 04:10:12;;;;;;;5.97;5.00;;;20.10;46.50;;;;;;1771545;80;21131;-71
2022/04/30 04:12:43;;;;;;;5.75;4.65;;;20.10;46.40;;;;;;1771500;80;21463;-71
2022/04/30 04:17:56;;;;;;;4.87;4.30;;;20.10;46.40;;;;;;1782970;80;21223;-70
2022/04/30 04:20:25;;;;;;;6.10;4.67;;;20.00;46.30;;;;;;1782825;80;21116;-70
2022/04/30 04:22:53;;;;;;;7.28;4.37;;;20.00;46.40;;;;;;1782538;80;21650;-71
2022/04/30 04:28:05;;;;;;;6.20;5.08;;;20.00;46.40;;;;;;1782718;80;21762;-71
2022/04/30 04:30:33;;;;;;;7.15;5.25;;;20.10;46.40;;;;;;1771742;80;21216;-71
2022/04/30 04:33:01;;;;;;;5.35;4.72;;;20.00;46.40;;;;;;1769509;80;21158;-70
2022/04/30 04:35:28;;;;;;;5.62;5.00;;;20.00;46.30;;;;;;1769541;80;21134;-71
2022/04/30 04:37:55;;;;;;;5.47;4.78;;;20.00;46.30;;;;;;1769673;80;21166;-71
2022/04/30 04:40:23;;;;;;;5.80;4.83;;;20.00;46.30;;;;;;1769185;80;21110;-70
2022/04/30 04:42:50;;;;;;;8.00;5.00;;;20.00;46.40;;;;;;1769374;80;21418;-70
2022/04/30 04:45:17;;;;;;;6.30;5.10;;;20.00;46.30;;;;;;1766596;80;21087;-71
2022/04/30 04:47:49;;;;;;;5.10;4.60;;;20.00;46.30;;;;;;1773548;80;21053;-70
2022/04/30 04:50:14;;;;;;;4.90;4.47;;;20.00;46.30;;;;;;1782185;79;21555;-70
2022/04/30 04:52:42;;;;;;;6.00;5.30;;;20.00;46.30;;;;;;1782125;80;21114;-71
2022/04/30 04:55:10;;;;;;;5.45;4.75;;;20.00;46.20;;;;;;1781509;80;21136;-71
2022/04/30 04:57:37;;;;;;;7.33;5.72;;;20.00;46.30;;;;;;1781502;80;21641;-71
2022/04/30 05:00:07;;;;;;;5.62;4.80;;;20.00;46.30;;;;;;1772671;80;21215;-71
2022/04/30 05:02:34;;;;;;;5.15;4.08;;;20.00;46.80;;;;;;1769321;80;21160;-72
2022/04/30 05:05:02;;;;;;;7.05;5.25;;;20.00;46.30;;;;;;1769686;80;21118;-73
2022/04/30 05:07:29;;;;;;;5.75;4.33;;;20.00;46.30;;;;;;1779323;80;21591;-70
2022/04/30 05:09:56;;;;;;;6.90;4.78;;;20.00;46.70;;;;;;1782824;80;21081;-66
2022/04/30 05:12:24;;;;;;;6.83;4.65;;;20.10;46.70;;;;;;1770401;80;22089;-70
2022/04/30 05:14:53;;;;;;;6.35;5.47;;;20.10;46.40;;;;;;1762620;80;21134;-70
2022/04/30 05:17:21;;;;;;;4.97;4.37;;;20.10;46.70;;;;;;1787456;80;21077;-71
2022/04/30 05:19:48;;;;;;;5.58;4.72;;;20.10;47.00;;;;;;1787544;80;22177;-69
2022/04/30 05:22:15;;;;;;;5.83;4.70;;;20.10;47.30;;;;;;1787395;79;21226;-69
2022/04/30 05:24:43;;;;;;;6.72;4.60;;;20.00;47.40;;;;;;1787109;79;21152;-70
2022/04/30 05:27:10;;;;;;;6.50;5.58;;;20.00;47.20;;;;;;1787260;80;21607;-69
2022/04/30 05:29:37;;;;;;;8.48;5.20;;;20.00;47.20;;;;;;1779817;80;21157;-70
2022/04/30 05:32:05;;;;;;;6.28;5.17;;;20.00;47.20;;;;;;1771717;80;21232;-69
2022/04/30 05:34:32;;;;;;;7.37;5.08;;;20.00;47.20;;;;;;1771572;80;21782;-70
2022/04/30 05:37:00;;;;;;;7.08;5.58;;;20.00;47.10;;;;;;1771260;80;21196;-69
2022/04/30 05:39:27;;;;;;;7.25;5.28;;;20.00;47.20;;;;;;1770614;80;21113;-70
2022/04/30 05:41:54;;;;;;;6.10;5.15;;;20.00;47.10;;;;;;1778042;80;21183;-69
2022/04/30 05:44:22;;;;;;;8.88;5.25;;;20.00;47.30;;;;;;1784840;80;21239;-69
2022/04/30 05:46:49;;;;;;;7.40;5.40;;;20.00;47.00;;;;;;1771377;80;21122;-69
2022/04/30 05:49:16;;;;;;;7.67;5.75;;;20.00;47.20;;;;;;1771028;80;21174;-69
2022/04/30 05:51:44;;;;;;;6.72;5.78;;;20.00;47.20;;;;;;1771165;80;21122;-69
2022/04/30 05:54:11;;;;;;;6.65;5.28;;;20.00;47.20;;;;;;1771329;80;21177;-70
2022/04/30 05:56:38;;;;;;;7.60;5.15;;;20.00;47.30;;;;;;1770529;80;21114;-69
2022/04/30 05:59:06;;;;;;;8.15;5.58;;;19.90;47.20;;;;;;1770022;80;21200;-69
2022/04/30 06:01:33;;;;;;;9.35;5.58;;;20.00;47.20;;;;;;1770696;80;21118;-69
2022/04/30 06:04:00;;;;;;;7.95;6.10;;;20.00;47.20;;;;;;1770554;80;21267;-69
2022/04/30 06:06:28;;;;;;;7.60;5.62;;;19.90;47.10;;;;;;1770418;80;21130;-69
2022/04/30 06:08:56;;;;;;;9.35;5.65;;;19.90;47.10;;;;;;1770473;80;21154;-68
2022/04/30 06:11:23;;;;;;;7.40;5.47;;;19.90;47.10;;;;;;1770904;80;21142;-70
2022/04/30 06:13:50;;;;;;;9.35;6.12;;;19.90;47.00;;;;;;1771009;79;21839;-69
2022/04/30 06:16:18;;;;;;;6.80;5.58;;;19.90;47.00;;;;;;1787884;78;21138;-69
2022/04/30 06:18:45;;;;;;;5.97;5.33;;;19.90;47.10;;;;;;1807778;79;21556;-69
2022/04/30 06:21:12;;;;;;;9.20;5.87;;;19.90;47.10;;;;;;1807768;79;21126;-69
2022/04/30 06:23:39;;;;;;;10.08;5.85;;;19.90;47.10;;;;;;1807625;79;21600;-69
2022/04/30 06:26:07;;;;;;;7.67;5.45;;;19.90;47.10;;;;;;1807761;79;21113;-69
2022/04/30 06:28:34;;;;;;;7.87;5.42;;;19.90;47.20;;;;;;1807243;79;21165;-70
2022/04/30 06:31:02;;;;;;;9.63;6.00;;;20.00;47.20;;;;;;1789221;79;21153;-68
2022/04/30 06:33:29;;;;;;;11.57;5.62;;;20.00;47.00;;;;;;1787159;79;21161;-70
2022/04/30 06:35:57;;;;;;;8.23;5.47;;;20.00;47.20;;;;;;1796365;79;21188;-68
2022/04/30 06:38:24;;;;;;;8.65;4.90;;;20.00;47.10;;;;;;1807370;79;21118;-69
2022/04/30 06:40:51;;;;;;;8.63;5.70;;;20.00;47.50;;;;;;1807555;79;21142;-68
2022/04/30 06:43:19;;;;;;;9.85;6.65;;;20.10;46.80;;;;;;1805489;79;21153;-68
2022/04/30 06:45:46;;;;;;;6.87;5.70;;;20.10;47.00;;;;;;1794059;79;21157;-69
2022/04/30 06:48:13;;;;;;;13.08;5.17;;;20.00;46.80;;;;;;1788963;79;21161;-68
2022/04/30 06:50:40;;;;;;;6.05;4.97;;;20.10;46.80;;;;;;1789296;79;21415;-69
2022/04/30 06:58:44;;;;;;;14.47;5.97;;;20.00;46.90;;;;;;1789108;79;21627;-70
2022/04/30 07:04:01;;;;;;;6.80;5.30;;;20.00;46.80;;;;;;1789234;79;21239;-68
2022/04/30 07:06:24;;;;;;;7.03;5.80;;;20.00;46.90;;;;;;1788240;79;21820;-69
2022/04/30 07:08:51;;;;;;;8.15;5.70;;;20.10;47.10;;;;;;1789155;79;21141;-68
2022/04/30 07:11:19;;;;;;;7.85;5.47;;;20.10;47.30;;;;;;1789240;79;21896;-69
2022/04/30 07:13:46;;;;;;;8.20;5.37;;;20.10;47.20;;;;;;1785247;79;21169;-68
2022/04/30 07:16:13;;;;;;;9.10;5.80;;;20.10;47.30;;;;;;1760401;79;21165;-68
2022/04/30 07:18:41;;;;;;;11.90;5.90;;;20.10;47.50;;;;;;1788699;79;21141;-69
2022/04/30 07:21:08;;;;;;;12.58;5.80;;;20.10;47.60;;;;;;1788967;79;21650;-68
2022/04/30 07:23:35;;;;;;;14.53;6.35;;;20.10;47.50;;;;;;1789279;79;21137;-68
2022/04/30 07:26:03;;;;;;;11.08;6.22;;;20.10;47.60;;;;;;1788433;79;22213;-69
2022/04/30 07:28:33;;;;;;;10.50;5.92;;;20.10;47.50;;;;;;1788951;79;21109;-68
2022/04/30 07:31:00;;;;;;;12.00;6.20;;;20.20;47.70;;;;;;1785728;79;21646;-70
2022/04/30 07:33:27;;;;;;;11.60;6.05;;;20.10;47.60;;;;;;1796677;79;21174;-68
2022/04/30 07:35:55;;;;;;;11.95;6.50;;;20.10;47.60;;;;;;1807240;79;21195;-68
2022/04/30 07:38:23;;;;;;;27.10;5.92;;;20.10;47.70;;;;;;1807475;79;21161;-68
2022/04/30 07:40:50;;;;;;;9.43;6.25;;;20.10;47.80;;;;;;1807324;79;21157;-68
2022/04/30 07:43:17;;;;;;;16.45;5.92;;;20.10;48.00;;;;;;1806425;79;21126;-69
2022/04/30 07:45:45;;;;;;;14.55;6.30;;;20.10;48.00;;;;;;1793519;79;21142;-69
2022/04/30 07:48:13;;;;;;;8.20;5.80;;;20.10;48.00;;;;;;1788548;79;21132;-67
2022/04/30 07:50:43;;;;;;;8.50;5.55;;;20.10;48.00;;;;;;1776886;79;21199;-69
2022/04/30 07:53:09;;;;;;;14.78;6.25;;;20.10;47.70;;;;;;1806395;79;21182;-68
2022/04/30 07:55:36;;;;;;;13.75;6.30;;;20.10;47.70;;;;;;1807152;79;21129;-67
2022/04/30 07:58:03;;;;;;;15.63;6.20;;;20.10;48.00;;;;;;1807543;79;21106;-70
2022/04/30 08:00:31;;;;;;;14.90;6.15;;;20.10;48.00;;;;;;1792387;79;21128;-68
2022/04/30 08:02:59;;;;;;;12.00;5.72;;;20.10;48.00;;;;;;1789035;79;21137;-67
2022/04/30 08:05:27;;;;;;;9.70;6.00;;;20.10;48.00;;;;;;1789070;79;21141;-70
2022/04/30 08:07:54;;;;;;;11.18;5.97;;;20.10;48.00;;;;;;1789074;79;21149;-67
2022/04/30 08:10:22;;;;;;;9.90;5.83;;;20.10;47.90;;;;;;1788836;79;21163;-68
2022/04/30 08:12:54;;;;;;;15.15;6.40;;;20.10;48.50;;;;;;1788658;79;21419;-68
2022/04/30 08:15:24;;;;;;;9.93;6.00;;;20.10;47.90;;;;;;1795040;79;21263;-68
2022/04/30 08:17:52;;;;;;;8.43;6.15;;;20.10;47.80;;;;;;1791522;79;22010;-68
2022/04/30 08:20:19;;;;;;;14.05;6.22;;;20.10;47.80;;;;;;1787254;80;21208;-69
2022/04/30 08:22:46;;;;;;;9.35;6.00;;;20.20;48.30;;;;;;1787033;80;22419;-67
2022/04/30 08:25:14;;;;;;;9.28;6.10;;;20.10;47.80;;;;;;1786716;80;21093;-68
2022/04/30 08:27:42;;;;;;;13.75;5.87;;;20.20;47.90;;;;;;1786946;80;21732;-68
2022/04/30 08:30:11;;;;;;;9.43;5.50;;;20.10;47.80;;;;;;1774429;80;21114;-68
2022/04/30 08:32:38;;;;;;;8.18;5.45;;;20.20;47.90;;;;;;1771817;80;21122;-69
2022/04/30 08:35:05;;;;;;;10.15;6.08;;;20.20;47.90;;;;;;1771279;80;21264;-69
2022/04/30 08:37:33;;;;;;;7.55;5.45;;;20.20;48.00;;;;;;1771336;80;21658;-68
2022/04/30 08:40:00;;;;;;;13.20;5.72;;;20.20;48.10;;;;;;1771141;80;21150;-69
2022/04/30 08:42:29;;;;;;;9.93;5.85;;;20.20;48.10;;;;;;1771985;80;21599;-68
2022/04/30 08:44:56;;;;;;;12.68;5.90;;;20.20;48.20;;;;;;1758374;80;21581;-67
2022/04/30 08:47:23;;;;;;;22.30;5.60;;;20.20;48.10;;;;;;1771547;80;21157;-68
2022/04/30 08:49:51;;;;;;;10.03;5.65;;;20.20;47.90;;;;;;1771669;80;21497;-67
2022/04/30 08:52:18;;;;;;;12.53;6.78;;;20.20;47.90;;;;;;1771339;80;21129;-67
2022/04/30 08:54:46;;;;;;;7.25;5.97;;;20.20;48.00;;;;;;1770311;80;22336;-68
2022/04/30 08:57:14;;;;;;;8.28;5.22;;;20.20;48.00;;;;;;1771136;80;21219;-68
2022/04/30 08:59:42;;;;;;;11.65;6.15;;;20.20;48.00;;;;;;1769625;80;21644;-68
2022/04/30 09:02:11;;;;;;;10.93;5.97;;;20.20;48.00;;;;;;1771122;80;21122;-68
2022/04/30 09:04:43;;;;;;;9.70;6.53;;;20.20;48.00;;;;;;1771628;80;21189;-69
2022/04/30 09:07:14;;;;;;;10.88;6.33;;;20.20;48.00;;;;;;1771205;80;21153;-70
2022/04/30 09:09:42;;;;;;;8.25;6.15;;;20.20;48.60;;;;;;1771373;80;21122;-68
2022/04/30 09:12:13;;;;;;;9.70;6.72;;;20.20;48.10;;;;;;1770607;80;21150;-69
2022/04/30 09:14:41;;;;;;;9.10;6.42;;;20.20;48.00;;;;;;1774751;80;21149;-69
2022/04/30 09:17:10;;;;;;;8.68;6.00;;;20.20;48.00;;;;;;1786622;80;21085;-68
2022/04/30 09:20:04;;;;;;;9.65;5.85;;;20.20;48.10;;;;;;1786875;80;21136;-68
2022/04/30 09:22:33;;;;;;;9.25;6.03;;;20.20;48.00;;;;;;1785597;79;21718;-68
2022/04/30 09:25:01;;;;;;;7.85;6.50;;;20.20;47.90;;;;;;1780085;80;21208;-67
2022/04/30 09:27:28;;;;;;;7.65;5.03;;;20.20;47.90;;;;;;1771382;80;22224;-68
2022/04/30 09:29:57;;;;;;;9.55;6.58;;;20.20;47.90;;;;;;1770518;80;21169;-69
2022/04/30 09:32:26;;;;;;;8.98;6.37;;;20.20;47.90;;;;;;1771678;80;21256;-69
2022/04/30 09:37:42;;;;;;;6.67;5.90;;;20.20;47.80;;;;;;1769078;80;21228;-69
2022/04/30 09:40:18;;;;;;;8.05;5.80;;;20.20;47.70;;;;;;1773882;80;21136;-68
2022/04/30 09:42:46;;;;;;;11.97;6.75;;;20.20;47.70;;;;;;1786606;79;21361;-69
2022/04/30 09:45:32;;;;;;;9.70;6.03;;;20.20;47.80;;;;;;1778734;80;21134;-69
2022/04/30 09:48:00;;;;;;;9.03;6.45;;;20.20;47.80;;;;;;1770212;80;21215;-68
2022/04/30 09:56:07;;;;;;;8.03;6.15;;;20.20;47.70;;;;;;1770049;80;21169;-69
2022/04/30 09:58:36;;;;;;;10.68;6.53;;;20.20;47.60;;;;;;1770662;80;21150;-69
2022/04/30 10:01:04;;;;;;;8.85;6.40;;;20.20;47.60;;;;;;1769528;80;21180;-68
2022/04/30 10:03:32;;;;;;;7.97;6.08;;;20.20;47.50;;;;;;1771717;80;21201;-69
2022/04/30 10:06:04;;;;;;;7.78;6.30;;;20.20;47.60;;;;;;1771597;80;21235;-69
2022/04/30 10:08:36;;;;;;;9.88;6.08;;;20.20;47.70;;;;;;1771686;80;22028;-69
2022/04/30 10:11:09;;;;;;;6.92;6.22;;;20.20;47.80;;;;;;1771547;80;21122;-70
2022/04/30 10:13:49;;;;;;;11.25;6.28;;;20.20;47.80;;;;;;1768552;80;21120;-68
2022/04/30 10:16:19;;;;;;;7.50;6.35;;;20.20;47.80;;;;;;1768451;80;21122;-68
2022/04/30 10:18:54;;;;;;;8.18;6.22;;;20.20;47.80;;;;;;1770895;80;21149;-68
2022/04/30 10:21:18;;;;;;;;;;;20.20;47.70;;;;;;1777702;80;21641;-68
2022/04/30 10:23:45;;;;;;;7.58;5.95;;;20.20;47.70;;;;;;1786435;80;20257;-67
2022/04/30 10:26:14;;;;;;;11.03;6.53;;;20.30;47.80;;;;;;1787146;80;21493;-67
2022/04/30 10:28:41;;;;;;;7.55;6.03;;;20.20;47.60;;;;;;1785999;80;21233;-67
2022/04/30 10:31:10;;;;;;;7.72;5.90;;;20.30;47.70;;;;;;1771550;80;21131;-68
2022/04/30 10:33:48;;;;;;;9.53;5.65;;;20.30;47.90;;;;;;1765938;80;21143;-67
2022/04/30 10:36:16;;;;;;;7.33;6.00;;;20.30;47.90;;;;;;1787550;80;21132;-69
2022/04/30 10:38:55;;;;;;;6.60;5.72;;;20.30;47.90;;;;;;1787149;80;21124;-67
2022/04/30 10:41:22;;;;;;;10.15;5.92;;;20.30;48.00;;;;;;1787054;80;21125;-68
2022/04/30 10:43:53;;;;;;;6.08;5.42;;;20.30;48.00;;;;;;1787098;80;22311;-67
2022/04/30 10:46:26;;;;;;;6.75;5.28;;;20.30;48.00;;;;;;1770993;80;21138;-68
2022/04/30 10:48:50;;;;;;;7.30;5.78;;;20.30;48.10;;;;;;1769956;80;21211;-69
2022/04/30 10:51:24;;;;;;;9.18;5.85;;;20.30;48.20;;;;;;1771459;80;21577;-66
2022/04/30 10:53:51;;;;;;;7.80;6.22;;;20.30;48.20;;;;;;1756421;80;21166;-68
2022/04/30 10:56:18;;;;;;;7.72;5.72;;;20.30;48.20;;;;;;1747044;81;21157;-66
2022/04/30 10:58:46;;;;;;;7.03;6.15;;;20.30;48.10;;;;;;1771287;80;21141;-68
2022/04/30 11:01:17;;;;;;;8.48;6.37;;;20.30;48.10;;;;;;1771556;80;21059;-67
2022/04/30 11:03:49;;;;;;;8.05;6.00;;;20.30;48.00;;;;;;1771238;80;21110;-69
2022/04/30 11:06:22;;;;;;;7.42;6.30;;;20.30;47.90;;;;;;1762348;80;21162;-68
2022/04/30 11:09:04;;;;;;;8.80;6.75;;;20.30;47.90;;;;;;1771935;80;21150;-67
2022/04/30 11:11:31;;;;;;;6.30;5.62;;;20.30;48.00;;;;;;1766864;80;21448;-67
2022/04/30 11:14:05;;;;;;;8.65;5.97;;;20.30;47.80;;;;;;1769592;80;22052;-68
2022/04/30 11:16:35;;;;;;;11.00;6.40;;;20.30;47.90;;;;;;1771720;80;21215;-68
2022/04/30 11:19:06;;;;;;;7.90;6.45;;;20.30;47.80;;;;;;1769796;80;21166;-66
2022/04/30 11:21:38;;;;;;;7.78;6.60;;;20.30;47.70;;;;;;1769638;80;21188;-67
2022/04/30 11:24:06;;;;;;;7.55;6.42;;;20.30;47.70;;;;;;1769162;80;21162;-68
2022/04/30 11:26:38;;;;;;;6.25;5.65;;;20.30;47.60;;;;;;1762591;80;21192;-67
2022/04/30 11:29:13;;;;;;;7.25;6.55;;;20.30;47.60;;;;;;1777532;80;21553;-67
2022/04/30 11:31:42;;;;;;;8.83;6.47;;;20.30;47.60;;;;;;1759879;80;21589;-67
2022/04/30 11:34:10;;;;;;;8.18;7.00;;;20.30;47.60;;;;;;1760859;80;21212;-68
2022/04/30 11:36:41;;;;;;;6.67;6.00;;;20.30;47.70;;;;;;1770049;80;21157;-67
2022/04/30 11:39:13;;;;;;;6.83;6.12;;;20.30;47.70;;;;;;1770138;80;21047;-68
2022/04/30 11:41:44;;;;;;;6.60;5.90;;;20.30;47.80;;;;;;1769406;80;21153;-67
2022/04/30 11:44:12;;;;;;;7.03;6.22;;;20.30;47.80;;;;;;1766754;80;21177;-66
2022/04/30 11:46:40;;;;;;;8.13;7.00;;;20.30;48.00;;;;;;1772669;80;21560;-66
2022/04/30 11:49:21;;;;;;;7.20;6.25;;;20.30;47.90;;;;;;1782811;80;21113;-67
2022/04/30 11:51:46;;;;;;;8.53;6.17;;;20.30;47.80;;;;;;1781344;79;21614;-67
2022/04/30 11:54:16;;;;;;;7.75;6.20;;;20.30;47.90;;;;;;1782620;80;21227;-68
2022/04/30 11:56:43;;;;;;;10.58;6.40;;;20.30;47.70;;;;;;1782382;80;22258;-68
2022/04/30 11:59:11;;;;;;;9.65;6.58;;;20.30;47.40;;;;;;1778737;80;21130;-67
2022/04/30 12:01:40;;;;;;;6.85;6.15;;;20.30;47.30;;;;;;1768675;80;21739;-67
2022/04/30 12:04:09;;;;;;;7.12;6.42;;;20.30;47.20;;;;;;1769424;80;21620;-67
2022/04/30 12:06:37;;;;;;;8.85;6.08;;;20.30;47.20;;;;;;1763449;80;21172;-67
2022/04/30 12:09:17;;;;;;;7.72;6.22;;;20.30;47.30;;;;;;1769690;80;21584;-67
2022/04/30 12:11:47;;;;;;;6.62;5.80;;;20.40;47.40;;;;;;1769146;80;21138;-68
2022/04/30 12:14:14;;;;;;;8.43;6.28;;;20.40;47.40;;;;;;1766918;80;21228;-67
2022/04/30 12:16:42;;;;;;;8.48;6.37;;;20.40;47.40;;;;;;1781639;80;21612;-68
2022/04/30 12:25:02;;;;;;;7.72;6.90;;;20.40;47.50;;;;;;1807869;79;21158;-67
2022/04/30 12:27:30;;;;;;;6.72;6.03;;;20.40;47.50;;;;;;1807887;79;22326;-67
2022/04/30 12:30:09;;;;;;;7.42;6.65;;;20.40;47.60;;;;;;1797154;79;21650;-68
2022/04/30 12:32:56;;;;;;;7.40;6.62;;;20.30;47.60;;;;;;1789343;79;21584;-67
2022/04/30 12:35:38;;;;;;;8.20;6.50;;;20.30;47.70;;;;;;1785609;79;21125;-67
2022/04/30 12:38:06;;;;;;;8.43;6.75;;;20.30;47.60;;;;;;1780076;79;21145;-67
2022/04/30 12:40:35;;;;;;;8.48;5.97;;;20.30;47.60;;;;;;1780773;79;21130;-67
2022/04/30 12:43:03;;;;;;;7.20;6.12;;;20.30;47.50;;;;;;1789491;79;21132;-67
2022/04/30 12:45:34;;;;;;;8.93;6.67;;;20.30;47.60;;;;;;1788238;79;21631;-68
2022/04/30 12:48:01;;;;;;;;;;;20.30;47.60;;;;;;1810202;79;21158;-68
2022/04/30 12:50:29;;;;;;;7.50;6.33;;;20.30;47.50;;;;;;1807461;79;20481;-67
2022/04/30 12:52:56;;;;;;;7.72;6.17;;;20.30;47.60;;;;;;1807503;79;21127;-66
2022/04/30 12:55:24;;;;;;;7.17;6.47;;;20.30;47.60;;;;;;1807633;79;21204;-66
2022/04/30 12:57:51;;;;;;;7.28;5.40;;;20.30;47.70;;;;;;1807695;79;21087;-68
2022/04/30 13:00:19;;;;;;;6.33;5.60;;;20.30;47.70;;;;;;1790887;79;21607;-67
2022/04/30 13:02:46;;;;;;;6.55;5.80;;;20.30;47.70;;;;;;1788751;79;21156;-67
2022/04/30 13:05:14;;;;;;;7.67;5.70;;;20.30;47.70;;;;;;1789160;79;21160;-67
2022/04/30 13:07:42;;;;;;;6.17;5.58;;;20.30;47.70;;;;;;1788265;79;21230;-67
2022/04/30 13:15:41;;;;;;;7.17;6.17;;;20.30;47.70;;;;;;1783589;79;21833;-68
2022/04/30 13:18:09;;;;;;;6.90;6.20;;;20.30;47.70;;;;;;1807294;79;21580;-67
2022/04/30 13:20:36;;;;;;;6.25;5.65;;;20.30;47.80;;;;;;1807017;79;21130;-68
2022/04/30 13:23:04;;;;;;;4.92;4.42;;;20.30;47.90;;;;;;1807282;79;21129;-68
2022/04/30 13:25:31;;;;;;;7.03;6.15;;;20.30;47.90;;;;;;1807177;79;21079;-68
2022/04/30 13:27:58;;;;;;;6.10;5.50;;;20.30;47.90;;;;;;1807472;79;21133;-67
2022/04/30 13:30:29;;;;;;;5.58;5.03;;;20.20;47.90;;;;;;1793032;79;21141;-67
2022/04/30 13:32:56;;;;;;;6.30;5.00;;;20.30;48.00;;;;;;1787615;79;21154;-67
2022/04/30 13:35:23;;;;;;;5.95;5.35;;;20.30;48.00;;;;;;1798106;79;21183;-66
2022/04/30 13:37:51;;;;;;;8.08;5.40;;;20.30;48.00;;;;;;1798590;78;21181;-67
2022/04/30 13:40:19;;;;;;;6.95;5.42;;;20.30;48.20;;;;;;1792483;79;21083;-67